Bergen Point, New Jersey
Current Conditions -  °F | °C
As of 5:51 AM on Tuesday 21 Oct 2014 (Local Time) from KEWR Reporting Station
Overcast Overcast  
Wind Chill: 55°   Ceiling: 12000
Heat Index: 55°   Visibility: 10mi
Dew Point: 45°   Wind: 0mph
Humidity: 69%   Direction: NA
Pressure: 29.9"   Gusts: NA
Location:  40.6645°N, 74.1108°W
Report Text: KEWR 210951Z 00000KT 10SM SCT050 BKN120 OVC150 13/07 A2990 RMK AO2 SLP124 T01280072
Loading
Personal Weather Stations






























Interactive Weather Map
Tropical Storm Tracking
New forecast layout! Learn more

10-Day Weather Forecast

Advertisements
Track Severe Weather on mobile